createdAt,value
2022-08-23T00:02:28.719Z,19.63
2022-08-23T00:05:07.847Z,19.35
2022-08-23T00:07:42.878Z,18.58
2022-08-23T00:10:14.702Z,19.98
2022-08-23T00:12:43.863Z,22.63
2022-08-23T00:15:13.942Z,23.35
2022-08-23T00:17:42.570Z,18.92
2022-08-23T00:20:13.890Z,24.20
2022-08-23T00:22:41.707Z,20.13
2022-08-23T00:25:13.188Z,20.08
2022-08-23T00:27:40.990Z,17.50
2022-08-23T00:30:11.019Z,19.75
2022-08-23T00:32:39.884Z,21.35
2022-08-23T00:35:09.760Z,19.80
2022-08-23T00:37:38.205Z,18.05
2022-08-23T00:40:09.780Z,19.15
2022-08-23T00:43:23.494Z,21.63
2022-08-23T00:46:15.265Z,16.75
2022-08-23T00:48:42.807Z,20.05
2022-08-23T00:51:14.902Z,19.85
2022-08-23T00:53:46.818Z,20.98
2022-08-23T00:56:17.513Z,17.63
2022-08-23T00:58:46.965Z,18.45
2022-08-23T01:01:15.524Z,19.85
2022-08-23T01:03:51.653Z,21.52
2022-08-23T01:07:03.434Z,23.00
2022-08-23T01:09:31.506Z,25.58
2022-08-23T01:12:32.665Z,22.38
2022-08-23T01:15:29.332Z,24.65
2022-08-23T01:18:07.507Z,21.70
2022-08-23T01:20:58.791Z,20.20
2022-08-23T01:23:31.922Z,22.42
2022-08-23T01:26:00.053Z,20.30
2022-08-23T01:28:27.903Z,21.58
2022-08-23T01:30:56.156Z,20.90
2022-08-23T01:33:23.838Z,22.55
2022-08-23T01:35:53.952Z,24.90
2022-08-23T01:38:23.340Z,20.73
2022-08-23T01:40:51.867Z,19.67
2022-08-23T01:43:22.039Z,19.35
2022-08-23T01:45:53.367Z,19.45
2022-08-23T01:48:23.543Z,18.50
2022-08-23T01:50:51.996Z,23.02
2022-08-23T01:53:19.744Z,17.65
2022-08-23T01:55:50.015Z,19.77
2022-08-23T01:58:19.698Z,19.83
2022-08-23T02:00:48.209Z,19.63
2022-08-23T02:03:16.409Z,16.05
2022-08-23T02:05:45.932Z,15.70
2022-08-23T02:08:32.701Z,14.75
2022-08-23T02:11:09.281Z,16.80
2022-08-23T02:13:38.781Z,16.40
2022-08-23T02:16:07.110Z,15.63
2022-08-23T02:18:35.664Z,17.35
2022-08-23T02:21:05.046Z,19.67
2022-08-23T02:23:33.815Z,17.70
2022-08-23T02:26:01.867Z,24.83
2022-08-23T02:28:29.659Z,20.63
2022-08-23T02:30:57.539Z,22.23
2022-08-23T02:33:25.321Z,24.35
2022-08-23T02:35:52.868Z,28.67
2022-08-23T02:38:20.609Z,27.95
2022-08-23T02:40:52.997Z,26.35
2022-08-23T02:43:31.115Z,22.50
2022-08-23T02:45:58.383Z,34.35
2022-08-23T02:48:26.249Z,28.92
2022-08-23T02:51:08.264Z,27.73
2022-08-23T02:53:35.989Z,34.08
2022-08-23T02:56:07.160Z,31.17
2022-08-23T02:58:54.285Z,35.90
2022-08-23T03:01:27.633Z,24.05
2022-08-23T03:04:00.445Z,24.92
2022-08-23T03:08:57.974Z,27.23
2022-08-23T03:11:25.745Z,24.73
2022-08-23T03:13:55.047Z,19.48
2022-08-23T03:16:23.411Z,16.63
2022-08-23T03:18:51.312Z,19.63
2022-08-23T03:21:23.714Z,12.88
2022-08-23T03:23:53.794Z,15.52
2022-08-23T03:26:21.807Z,12.40
2022-08-23T03:28:58.303Z,12.38
2022-08-23T03:31:30.677Z,12.95
2022-08-23T03:34:07.531Z,10.38
2022-08-23T03:36:35.575Z,10.90
2022-08-23T03:39:05.839Z,11.27
2022-08-23T03:41:33.478Z,9.77
2022-08-23T03:44:01.032Z,12.77
2022-08-23T03:46:34.042Z,10.45
2022-08-23T03:49:03.907Z,13.02
2022-08-23T03:51:42.435Z,14.73
2022-08-23T03:54:11.227Z,10.75
2022-08-23T03:56:49.898Z,11.07
2022-08-23T03:59:17.953Z,10.90
2022-08-23T04:01:48.557Z,10.25
2022-08-23T04:04:16.036Z,12.20
2022-08-23T04:06:59.628Z,12.98
2022-08-23T04:09:27.525Z,11.13
2022-08-23T04:11:56.751Z,9.07
2022-08-23T04:14:25.154Z,12.95
2022-08-23T04:16:52.728Z,13.40
2022-08-23T04:19:23.514Z,9.15
2022-08-23T04:22:04.096Z,10.57
2022-08-23T04:24:39.811Z,8.88
2022-08-23T04:27:07.508Z,12.63
2022-08-23T04:29:35.596Z,11.48
2022-08-23T04:32:07.883Z,10.93
2022-08-23T04:34:45.706Z,11.32
2022-08-23T04:37:19.462Z,11.90
2022-08-23T04:40:05.466Z,11.98
2022-08-23T04:42:41.060Z,10.65
2022-08-23T04:45:09.258Z,13.20
2022-08-23T04:47:41.638Z,14.65
2022-08-23T04:50:10.984Z,10.93
2022-08-23T04:52:56.741Z,12.85
2022-08-23T04:55:24.314Z,12.85
2022-08-23T04:58:01.860Z,18.40
2022-08-23T05:00:34.193Z,17.73
2022-08-23T05:03:02.226Z,16.05
2022-08-23T05:05:29.911Z,14.95
2022-08-23T05:07:57.261Z,14.68
2022-08-23T05:10:24.995Z,14.52
2022-08-23T05:12:54.246Z,16.67
2022-08-23T05:15:22.312Z,13.57
2022-08-23T05:17:57.653Z,14.38
2022-08-23T05:20:25.084Z,17.33
2022-08-23T05:22:52.417Z,15.25
2022-08-23T05:25:53.517Z,13.88
2022-08-23T05:28:34.875Z,12.80
2022-08-23T05:31:12.854Z,17.60
2022-08-23T05:33:45.501Z,16.35
2022-08-23T05:36:16.003Z,12.95
2022-08-23T05:38:44.279Z,18.92
2022-08-23T05:41:13.373Z,16.25
2022-08-23T05:43:41.209Z,14.52
2022-08-23T05:46:13.241Z,14.50
2022-08-23T05:48:47.618Z,15.38
2022-08-23T05:51:29.638Z,17.50
2022-08-23T05:54:07.836Z,15.52
2022-08-23T05:56:40.023Z,14.25
2022-08-23T05:59:13.210Z,12.35
2022-08-23T06:01:42.768Z,12.07
2022-08-23T06:04:17.425Z,12.05
2022-08-23T06:06:45.559Z,13.02
2022-08-23T06:09:15.762Z,14.95
2022-08-23T06:11:45.733Z,12.38
2022-08-23T06:14:14.205Z,15.00
2022-08-23T06:16:46.869Z,12.45
2022-08-23T06:19:18.587Z,15.98
2022-08-23T06:21:49.519Z,16.38
2022-08-23T06:24:23.729Z,17.33
2022-08-23T06:26:55.377Z,16.75
2022-08-23T06:29:22.748Z,18.30
2022-08-23T06:32:02.943Z,17.05
2022-08-23T06:34:38.125Z,17.77
2022-08-23T06:37:41.435Z,18.08
2022-08-23T06:40:28.273Z,17.70
2022-08-23T06:43:00.902Z,16.00
2022-08-23T06:45:48.413Z,16.42
2022-08-23T06:48:22.895Z,16.33
2022-08-23T06:50:50.950Z,17.88
2022-08-23T06:53:31.029Z,15.98
2022-08-23T06:56:18.834Z,15.07
2022-08-23T06:59:06.587Z,16.35
2022-08-23T07:02:04.304Z,16.13
2022-08-23T07:04:56.006Z,15.80
2022-08-23T07:07:41.450Z,15.63
2022-08-23T07:10:14.583Z,12.32
2022-08-23T07:12:43.018Z,13.00
2022-08-23T07:15:13.115Z,15.05
2022-08-23T07:17:43.987Z,15.13
2022-08-23T07:20:11.960Z,11.65
2022-08-23T07:22:42.490Z,11.82
2022-08-23T07:25:11.181Z,9.75
2022-08-23T07:27:39.863Z,12.15
2022-08-23T07:30:09.216Z,9.02
2022-08-23T07:32:40.759Z,10.70
2022-08-23T07:35:24.764Z,11.63
2022-08-23T07:40:30.064Z,11.93
2022-08-23T07:43:03.459Z,10.98
2022-08-23T07:45:31.400Z,10.25
2022-08-23T07:48:02.828Z,10.32
2022-08-23T07:50:35.746Z,11.05
2022-08-23T07:53:04.602Z,11.48
2022-08-23T07:55:31.861Z,13.30
2022-08-23T07:58:23.067Z,9.98
2022-08-23T08:00:56.203Z,7.72
2022-08-23T08:03:40.056Z,10.48
2022-08-23T08:06:39.542Z,9.10
2022-08-23T08:09:08.373Z,8.35
2022-08-23T08:11:36.555Z,9.30
2022-08-23T08:14:08.030Z,6.47
2022-08-23T08:16:45.852Z,8.68
2022-08-23T08:19:19.825Z,7.95
2022-08-23T08:22:22.491Z,5.82
2022-08-23T08:25:10.227Z,7.25
2022-08-23T08:27:39.637Z,7.50
2022-08-23T08:30:11.829Z,6.18
2022-08-23T08:32:46.988Z,6.63
2022-08-23T08:35:15.958Z,7.53
2022-08-23T08:37:43.618Z,4.70
2022-08-23T08:40:11.982Z,3.95
2022-08-23T08:43:09.189Z,5.35
2022-08-23T08:46:02.079Z,4.50
2022-08-23T08:48:38.783Z,4.47
2022-08-23T08:51:19.606Z,4.75
2022-08-23T08:53:49.958Z,4.65
2022-08-23T08:56:33.065Z,5.85
2022-08-23T08:59:19.477Z,6.88
2022-08-23T09:01:48.654Z,4.93
2022-08-23T09:04:22.523Z,5.13
2022-08-23T09:06:59.112Z,7.13
2022-08-23T09:09:44.892Z,7.45
2022-08-23T09:12:26.658Z,7.38
2022-08-23T09:15:15.337Z,6.07
2022-08-23T09:17:56.496Z,7.63
2022-08-23T09:20:32.968Z,3.03
2022-08-23T09:23:21.537Z,6.85
2022-08-23T09:25:56.362Z,4.50
2022-08-23T09:28:36.584Z,3.17
2022-08-23T09:31:08.180Z,3.67
2022-08-23T09:33:42.199Z,4.72
2022-08-23T09:36:26.630Z,5.25
2022-08-23T09:39:23.535Z,6.30
2022-08-23T09:42:00.998Z,3.75
2022-08-23T09:44:41.202Z,6.10
2022-08-23T09:47:13.610Z,5.20
2022-08-23T09:49:52.235Z,5.10
2022-08-23T09:52:27.069Z,5.60
2022-08-23T09:55:04.257Z,5.10
2022-08-23T09:57:35.229Z,3.85
2022-08-23T10:00:25.357Z,4.03
2022-08-23T10:02:58.152Z,3.58
2022-08-23T10:05:40.857Z,2.42
2022-08-23T10:08:33.418Z,2.30
2022-08-23T10:11:21.330Z,4.47
2022-08-23T10:13:48.908Z,4.18
2022-08-23T10:16:29.402Z,5.03
2022-08-23T10:19:50.373Z,3.15
2022-08-23T10:22:24.038Z,4.35
2022-08-23T10:25:27.881Z,4.78
2022-08-23T10:28:39.725Z,4.38
2022-08-23T10:31:08.007Z,4.68
2022-08-23T10:33:57.946Z,7.13
2022-08-23T10:36:33.985Z,4.43
2022-08-23T10:39:15.415Z,4.57
2022-08-23T10:42:07.155Z,3.93
2022-08-23T10:45:11.172Z,7.18
2022-08-23T10:47:46.231Z,5.05
2022-08-23T10:50:22.331Z,4.57
2022-08-23T10:52:51.134Z,3.92
2022-08-23T10:55:36.820Z,3.45
2022-08-23T10:58:11.353Z,4.10
2022-08-23T11:00:39.882Z,3.35
2022-08-23T11:03:28.932Z,3.60
2022-08-23T11:06:26.914Z,6.13
2022-08-23T11:09:02.272Z,3.53
2022-08-23T11:11:43.760Z,4.43
2022-08-23T11:14:25.188Z,6.53
2022-08-23T11:17:00.040Z,3.45
2022-08-23T11:19:53.038Z,4.78
2022-08-23T11:22:33.616Z,4.43
2022-08-23T11:25:26.318Z,4.10
2022-08-23T11:28:24.385Z,3.25
2022-08-23T11:31:12.310Z,3.15
2022-08-23T11:33:53.547Z,2.83
2022-08-23T11:36:26.636Z,6.60
2022-08-23T11:38:55.827Z,4.00
2022-08-23T11:41:35.562Z,3.67
2022-08-23T11:44:02.763Z,5.10
2022-08-23T11:46:35.289Z,4.57
2022-08-23T11:49:31.328Z,2.70
2022-08-23T11:52:37.387Z,3.70
2022-08-23T11:55:28.401Z,2.78
2022-08-23T11:58:15.758Z,6.30
2022-08-23T12:01:11.355Z,3.25
2022-08-23T12:04:00.448Z,2.63
2022-08-23T12:06:41.227Z,4.97
2022-08-23T12:11:55.234Z,2.65
2022-08-23T12:14:31.842Z,3.20
2022-08-23T12:17:05.790Z,4.45
2022-08-23T12:19:40.561Z,3.33
2022-08-23T12:22:21.774Z,3.67
2022-08-23T12:25:09.095Z,2.80
2022-08-23T12:27:44.366Z,2.50
2022-08-23T12:30:54.845Z,5.68
2022-08-23T12:33:42.140Z,4.50
2022-08-23T12:36:39.519Z,5.30
2022-08-23T12:39:45.173Z,3.67
2022-08-23T12:42:20.081Z,3.70
2022-08-23T12:45:05.172Z,4.25
2022-08-23T12:47:33.827Z,4.65
2022-08-23T12:50:04.835Z,4.63
2022-08-23T12:52:34.879Z,4.07
2022-08-23T12:55:18.696Z,3.53
2022-08-23T13:00:26.327Z,4.95
2022-08-23T13:03:17.100Z,3.28
2022-08-23T13:05:52.721Z,3.22
2022-08-23T13:08:34.492Z,6.40
2022-08-23T13:11:08.002Z,2.15
2022-08-23T13:13:41.960Z,3.60
2022-08-23T13:16:41.141Z,3.75
2022-08-23T13:19:32.328Z,6.93
2022-08-23T13:22:22.536Z,3.28
2022-08-23T13:25:27.588Z,5.55
2022-08-23T13:28:00.060Z,3.60
2022-08-23T13:30:37.112Z,3.90
2022-08-23T13:33:07.684Z,4.22
2022-08-23T13:36:13.702Z,3.85
2022-08-23T13:38:42.293Z,3.78
2022-08-23T13:41:26.768Z,4.20
2022-08-23T13:43:55.148Z,5.20
2022-08-23T13:46:26.911Z,3.90
2022-08-23T13:49:18.103Z,2.47
2022-08-23T13:52:33.409Z,3.85
2022-08-23T13:54:53.102Z,3.38
2022-08-23T13:57:21.852Z,5.75
2022-08-23T13:59:51.382Z,3.72
2022-08-23T14:02:20.345Z,3.25
2022-08-23T14:04:48.012Z,4.15
2022-08-23T14:07:15.917Z,4.80
2022-08-23T14:09:44.125Z,2.92
2022-08-23T14:12:24.173Z,6.43
2022-08-23T14:14:56.507Z,3.63
2022-08-23T14:17:24.013Z,3.97
2022-08-23T14:22:40.456Z,5.22
2022-08-23T14:25:09.466Z,4.53
2022-08-23T14:27:43.119Z,5.05
2022-08-23T14:30:19.374Z,6.38
2022-08-23T14:32:46.628Z,4.07
2022-08-23T14:35:13.783Z,4.25
2022-08-23T14:40:29.101Z,7.05
2022-08-23T14:42:56.593Z,5.78
2022-08-23T14:45:25.292Z,6.45
2022-08-23T14:47:52.513Z,6.43
2022-08-23T14:50:19.839Z,6.28
2022-08-23T14:52:48.399Z,8.00
2022-08-23T14:55:15.905Z,6.45
2022-08-23T14:57:49.232Z,6.40
2022-08-23T15:00:17.766Z,5.72
2022-08-23T15:02:46.511Z,5.72
2022-08-23T15:05:15.352Z,5.43
2022-08-23T15:07:43.641Z,8.27
2022-08-23T15:10:49.713Z,5.68
2022-08-23T15:13:19.227Z,6.70
2022-08-23T15:15:49.512Z,5.50
2022-08-23T15:18:17.897Z,6.57
2022-08-23T15:20:45.974Z,5.43
2022-08-23T15:23:13.448Z,6.57
2022-08-23T15:25:42.767Z,7.63
2022-08-23T15:28:13.576Z,8.95
2022-08-23T15:30:42.218Z,7.45
2022-08-23T15:33:10.725Z,6.47
2022-08-23T15:35:45.661Z,4.55
2022-08-23T15:38:15.328Z,6.72
2022-08-23T15:46:28.413Z,6.22
2022-08-23T15:49:24.046Z,4.72
2022-08-23T15:51:51.651Z,16.35
2022-08-23T15:54:19.137Z,5.88
2022-08-23T15:56:50.427Z,5.85
2022-08-23T15:59:19.716Z,7.57
2022-08-23T16:01:47.873Z,8.73
2022-08-23T16:04:15.638Z,4.40
2022-08-23T16:07:29.271Z,7.07
2022-08-23T16:10:01.193Z,4.38
2022-08-23T16:12:31.860Z,6.55
2022-08-23T16:15:04.001Z,5.22
2022-08-23T16:17:52.055Z,6.40
2022-08-23T16:20:23.657Z,5.50
2022-08-23T16:22:55.392Z,5.95
2022-08-23T16:25:37.092Z,5.38
2022-08-23T16:28:14.089Z,5.40
2022-08-23T16:30:41.554Z,6.70
2022-08-23T16:33:24.006Z,5.03
2022-08-23T16:36:00.774Z,4.88
2022-08-23T16:38:51.858Z,4.45
2022-08-23T16:41:19.396Z,6.38
2022-08-23T16:43:47.015Z,5.57
2022-08-23T16:46:20.672Z,6.95
2022-08-23T16:48:55.739Z,5.57
2022-08-23T16:51:40.972Z,9.32
2022-08-23T16:56:44.284Z,5.10
2022-08-23T16:59:14.625Z,6.90
2022-08-23T17:01:58.686Z,5.13
2022-08-23T17:04:30.627Z,5.50
2022-08-23T17:09:28.428Z,4.30
2022-08-23T17:11:59.507Z,5.43
2022-08-23T17:14:33.652Z,4.68
2022-08-23T17:17:04.122Z,5.18
2022-08-23T17:19:32.292Z,5.53
2022-08-23T17:22:00.115Z,4.80
2022-08-23T17:24:27.889Z,7.78
2022-08-23T17:26:55.575Z,5.72
2022-08-23T17:29:23.799Z,6.70
2022-08-23T17:31:52.182Z,7.38
2022-08-23T17:34:19.626Z,5.85
2022-08-23T17:36:51.370Z,5.60
2022-08-23T17:39:25.103Z,5.72
2022-08-23T17:41:53.775Z,8.57
2022-08-23T17:44:21.166Z,4.30
2022-08-23T17:46:50.680Z,9.57
2022-08-23T17:49:19.291Z,7.43
2022-08-23T17:51:51.557Z,5.47
2022-08-23T17:54:19.224Z,7.80
2022-08-23T17:56:50.487Z,7.20
2022-08-23T17:59:20.066Z,10.07
2022-08-23T18:01:47.609Z,6.50
2022-08-23T18:04:15.913Z,5.13
2022-08-23T18:06:43.673Z,5.70
2022-08-23T18:09:12.307Z,5.35
2022-08-23T18:11:40.203Z,4.55
2022-08-23T18:14:08.923Z,5.10
2022-08-23T18:16:37.036Z,5.15
2022-08-23T18:19:11.331Z,4.53
2022-08-23T18:21:42.966Z,5.47
2022-08-23T18:24:11.227Z,4.70
2022-08-23T18:26:59.517Z,5.30
2022-08-23T18:29:30.383Z,4.85
2022-08-23T18:31:58.836Z,6.25
2022-08-23T18:34:27.204Z,5.18
2022-08-23T18:36:55.148Z,10.23
2022-08-23T18:39:31.146Z,7.28
2022-08-23T18:42:02.172Z,5.97
2022-08-23T18:44:30.358Z,7.90
2022-08-23T18:46:58.939Z,5.25
2022-08-23T18:49:27.152Z,5.28
2022-08-23T18:51:54.780Z,5.05
2022-08-23T18:54:22.596Z,5.07
2022-08-23T18:56:50.533Z,4.85
2022-08-23T18:59:18.659Z,4.28
2022-08-23T19:01:46.633Z,4.70
2022-08-23T19:04:15.110Z,5.35
2022-08-23T19:06:43.137Z,4.55
2022-08-23T19:09:13.092Z,4.55
2022-08-23T19:11:43.047Z,6.65
2022-08-23T19:14:13.173Z,4.60
2022-08-23T19:16:49.006Z,3.90
2022-08-23T19:19:22.611Z,4.30
2022-08-23T19:21:50.576Z,5.05
2022-08-23T19:24:18.141Z,4.20
2022-08-23T19:26:47.985Z,6.47
2022-08-23T19:29:21.080Z,5.25
2022-08-23T19:31:51.472Z,4.05
2022-08-23T19:34:21.134Z,4.32
2022-08-23T19:36:56.699Z,4.13
2022-08-23T19:39:29.010Z,4.78
2022-08-23T19:41:56.927Z,5.18
2022-08-23T19:44:35.467Z,4.75
2022-08-23T19:47:07.863Z,3.25
2022-08-23T19:49:42.805Z,3.63
2022-08-23T19:52:11.989Z,3.33
2022-08-23T19:54:50.672Z,3.10
2022-08-23T19:57:23.647Z,4.43
2022-08-23T19:59:52.067Z,5.32
2022-08-23T20:02:19.666Z,3.78
2022-08-23T20:04:48.408Z,3.35
2022-08-23T20:07:20.383Z,4.32
2022-08-23T20:10:10.963Z,4.03
2022-08-23T20:12:39.744Z,2.75
2022-08-23T20:15:10.022Z,3.22
2022-08-23T20:17:41.501Z,3.60
2022-08-23T20:20:11.242Z,2.97
2022-08-23T20:23:03.210Z,4.18
2022-08-23T20:25:31.299Z,6.07
2022-08-23T20:27:59.309Z,2.92
2022-08-23T20:31:20.030Z,6.10
2022-08-23T20:36:48.784Z,4.43
2022-08-23T20:39:20.409Z,3.85
2022-08-23T20:41:52.184Z,4.38
2022-08-23T20:44:22.438Z,5.32
2022-08-23T20:46:54.807Z,2.95
2022-08-23T20:49:26.093Z,3.80
2022-08-23T20:55:00.032Z,4.03
2022-08-23T20:57:28.655Z,3.80
2022-08-23T21:00:05.545Z,4.05
2022-08-23T21:02:32.995Z,3.58
2022-08-23T21:05:00.318Z,4.10
2022-08-23T21:07:28.082Z,11.43
2022-08-23T21:09:55.571Z,5.35
2022-08-23T21:12:23.091Z,4.80
2022-08-23T21:14:51.764Z,4.38
2022-08-23T21:17:23.246Z,3.97
2022-08-23T21:19:50.888Z,5.18
2022-08-23T21:22:19.625Z,3.47
2022-08-23T21:24:47.067Z,4.28
2022-08-23T21:27:16.542Z,5.03
2022-08-23T21:29:44.338Z,4.00
2022-08-23T21:32:12.108Z,3.83
2022-08-23T21:34:40.073Z,4.90
2022-08-23T21:37:08.944Z,4.45
2022-08-23T21:39:36.326Z,3.80
2022-08-23T21:42:14.697Z,4.65
2022-08-23T21:44:43.720Z,5.43
2022-08-23T21:47:14.032Z,4.30
2022-08-23T21:49:46.094Z,3.78
2022-08-23T21:54:43.959Z,4.50
2022-08-23T21:57:14.872Z,4.95
2022-08-23T21:59:43.963Z,6.03
2022-08-23T22:02:11.658Z,5.97
2022-08-23T22:04:39.425Z,4.60
2022-08-23T22:07:14.922Z,6.00
2022-08-23T22:09:42.599Z,6.72
2022-08-23T22:12:10.185Z,4.32
2022-08-23T22:14:38.606Z,6.68
2022-08-23T22:17:06.816Z,3.70
2022-08-23T22:19:40.570Z,4.05
2022-08-23T22:22:12.269Z,4.72
2022-08-23T22:24:41.494Z,8.50
2022-08-23T22:27:09.736Z,5.05
2022-08-23T22:29:38.046Z,7.10
2022-08-23T22:32:06.140Z,5.93
2022-08-23T22:34:40.440Z,6.65
2022-08-23T22:37:10.135Z,5.53
2022-08-23T22:39:38.816Z,7.45
2022-08-23T22:42:10.003Z,5.28
2022-08-23T22:44:39.735Z,4.82
2022-08-23T22:47:12.583Z,5.43
2022-08-23T22:49:40.615Z,4.47
2022-08-23T22:52:11.448Z,6.25
2022-08-23T22:54:59.416Z,5.07
2022-08-23T22:57:26.906Z,6.18
2022-08-23T22:59:55.321Z,5.13
2022-08-23T23:02:26.857Z,4.75
2022-08-23T23:04:54.761Z,5.35
2022-08-23T23:07:45.676Z,6.30
2022-08-23T23:10:17.320Z,5.13
2022-08-23T23:12:46.754Z,5.10
2022-08-23T23:15:19.079Z,5.30
2022-08-23T23:17:49.875Z,5.15
2022-08-23T23:20:41.232Z,5.55
2022-08-23T23:23:12.774Z,5.00
2022-08-23T23:25:42.943Z,5.63
2022-08-23T23:28:10.973Z,5.70
2022-08-23T23:30:39.423Z,6.53
2022-08-23T23:33:08.851Z,7.13
2022-08-23T23:35:37.150Z,6.72
2022-08-23T23:38:07.235Z,5.57
2022-08-23T23:40:37.769Z,6.53
2022-08-23T23:43:08.984Z,5.35
2022-08-23T23:45:42.488Z,5.72
2022-08-23T23:48:11.929Z,5.95
2022-08-23T23:50:45.540Z,6.00
2022-08-23T23:53:15.501Z,7.32
2022-08-23T23:55:46.818Z,6.30
2022-08-23T23:58:15.807Z,6.37
